createdAt,value
2019-04-05T00:00:02.271Z,924.54
2019-04-05T00:00:15.344Z,924.56
2019-04-05T00:00:28.408Z,924.53
2019-04-05T00:00:41.458Z,924.55
2019-04-05T00:00:54.449Z,924.53
2019-04-05T00:01:07.462Z,924.52
2019-04-05T00:01:20.409Z,924.53
2019-04-05T00:01:33.333Z,924.5
2019-04-05T00:01:46.404Z,924.53
2019-04-05T00:01:59.052Z,924.51
2019-04-05T00:02:12.046Z,924.55
2019-04-05T00:02:25.080Z,924.52
2019-04-05T00:02:38.054Z,924.54
2019-04-05T00:02:51.040Z,924.56
2019-04-05T00:03:04.064Z,924.53
2019-04-05T00:03:17.126Z,924.56
2019-04-05T00:03:30.202Z,924.53
2019-04-05T00:03:43.285Z,924.56
2019-04-05T00:03:56.329Z,924.55
2019-04-05T00:04:09.447Z,924.55
2019-04-05T00:04:22.411Z,924.56
2019-04-05T00:04:35.486Z,924.53
2019-04-05T00:04:48.471Z,924.55
2019-04-05T00:05:01.500Z,924.55
2019-04-05T00:05:14.491Z,924.59
2019-04-05T00:05:27.096Z,924.56
2019-04-05T00:05:40.138Z,924.6
2019-04-05T00:05:53.231Z,924.6
2019-04-05T00:06:05.787Z,924.58
2019-04-05T00:06:18.820Z,924.61
2019-04-05T00:06:31.809Z,924.6
2019-04-05T00:06:44.819Z,924.61
2019-04-05T00:06:57.792Z,924.59
2019-04-05T00:07:10.372Z,924.61
2019-04-05T00:07:22.995Z,924.63
2019-04-05T00:07:36.056Z,924.62
2019-04-05T00:07:49.066Z,924.62
2019-04-05T00:08:02.104Z,924.63
2019-04-05T00:08:15.137Z,924.62
2019-04-05T00:08:28.242Z,924.6
2019-04-05T00:08:41.217Z,924.61
2019-04-05T00:08:54.248Z,924.63
2019-04-05T00:09:07.222Z,924.66
2019-04-05T00:09:20.237Z,924.63
2019-04-05T00:09:33.255Z,924.65
2019-04-05T00:09:46.238Z,924.67
2019-04-05T00:09:58.772Z,924.66
2019-04-05T00:10:11.780Z,924.69
2019-04-05T00:10:24.664Z,924.66
2019-04-05T00:10:37.638Z,924.68
2019-04-05T00:10:50.788Z,924.66
2019-04-05T00:11:03.758Z,924.67
2019-04-05T00:11:16.825Z,924.7
2019-04-05T00:11:29.876Z,924.67
2019-04-05T00:11:42.867Z,924.69
2019-04-05T00:11:56.675Z,924.67
2019-04-05T00:12:09.251Z,924.64
2019-04-05T00:12:22.180Z,924.66
2019-04-05T00:12:35.131Z,924.7
2019-04-05T00:12:48.157Z,924.69
2019-04-05T00:13:01.275Z,924.68
2019-04-05T00:13:14.340Z,924.65
2019-04-05T00:13:27.323Z,924.72
2019-04-05T00:13:40.344Z,924.67
2019-04-05T00:13:53.320Z,924.67
2019-04-05T00:14:06.306Z,924.68
2019-04-05T00:14:19.321Z,924.71
2019-04-05T00:14:32.329Z,924.73
2019-04-05T00:14:45.254Z,924.72
2019-04-05T00:14:58.270Z,924.72
2019-04-05T00:15:24.681Z,924.71
2019-04-05T00:15:39.210Z,924.72
2019-04-05T00:15:52.236Z,924.7
2019-04-05T00:16:04.827Z,924.73
2019-04-05T00:16:17.851Z,924.72
2019-04-05T00:16:30.891Z,924.72
2019-04-05T00:16:43.859Z,924.72
2019-04-05T00:16:56.839Z,924.72
2019-04-05T00:17:09.360Z,924.74
2019-04-05T00:17:22.366Z,924.72
2019-04-05T00:17:35.373Z,924.74
2019-04-05T00:17:48.551Z,924.71
2019-04-05T00:18:01.496Z,924.72
2019-04-05T00:18:14.519Z,924.72
2019-04-05T00:18:27.500Z,924.74
2019-04-05T00:18:40.575Z,924.74
2019-04-05T00:18:53.589Z,924.7
2019-04-05T00:19:06.613Z,924.71
2019-04-05T00:19:19.645Z,924.71
2019-04-05T00:19:32.631Z,924.71
2019-04-05T00:19:45.615Z,924.74
2019-04-05T00:19:58.619Z,924.7
2019-04-05T00:20:11.634Z,924.71
2019-04-05T00:20:24.686Z,924.71
2019-04-05T00:20:37.688Z,924.71
2019-04-05T00:20:50.756Z,924.72
2019-04-05T00:21:03.327Z,924.73
2019-04-05T00:21:16.381Z,924.68
2019-04-05T00:21:29.298Z,924.69
2019-04-05T00:21:42.221Z,924.68
2019-04-05T00:21:55.135Z,924.67
2019-04-05T00:22:08.192Z,924.7
2019-04-05T00:22:20.816Z,924.71
2019-04-05T00:22:33.892Z,924.66
2019-04-05T00:22:46.958Z,924.68
2019-04-05T00:22:59.974Z,924.68
2019-04-05T00:23:13.033Z,924.7
2019-04-05T00:23:26.060Z,924.7
2019-04-05T00:23:39.004Z,924.67
2019-04-05T00:23:52.021Z,924.7
2019-04-05T00:24:04.987Z,924.67
2019-04-05T00:24:18.008Z,924.69
2019-04-05T00:24:30.971Z,924.69
2019-04-05T00:24:44.109Z,924.69
2019-04-05T00:24:57.059Z,924.68
2019-04-05T00:25:10.073Z,924.67
2019-04-05T00:25:23.109Z,924.69
2019-04-05T00:25:36.141Z,924.7
2019-04-05T00:25:49.170Z,924.7
2019-04-05T00:26:02.284Z,924.68
2019-04-05T00:26:15.269Z,924.69
2019-04-05T00:26:28.215Z,924.72
2019-04-05T00:26:41.254Z,924.7
2019-04-05T00:26:54.298Z,924.73
2019-04-05T00:27:07.557Z,924.69
2019-04-05T00:27:20.115Z,924.7
2019-04-05T00:27:33.183Z,924.7
2019-04-05T00:27:46.284Z,924.73
2019-04-05T00:27:59.293Z,924.74
2019-04-05T00:28:12.296Z,924.74
2019-04-05T00:28:25.334Z,924.71
2019-04-05T00:28:38.318Z,924.74
2019-04-05T00:28:52.853Z,924.73
2019-04-05T00:29:05.370Z,924.77
2019-04-05T00:29:18.356Z,924.76
2019-04-05T00:29:31.334Z,924.78
2019-04-05T00:29:44.351Z,924.8
2019-04-05T00:29:57.400Z,924.75
2019-04-05T00:30:10.403Z,924.78
2019-04-05T00:30:23.437Z,924.74
2019-04-05T00:30:36.419Z,924.78
2019-04-05T00:30:49.022Z,924.77
2019-04-05T00:31:02.046Z,924.73
2019-04-05T00:31:15.070Z,924.75
2019-04-05T00:31:28.160Z,924.76
2019-04-05T00:31:41.182Z,924.78
2019-04-05T00:31:54.238Z,924.78
2019-04-05T00:32:07.409Z,924.76
2019-04-05T00:32:20.431Z,924.76
2019-04-05T00:32:33.472Z,924.75
2019-04-05T00:32:46.493Z,924.75
2019-04-05T00:32:59.476Z,924.76
2019-04-05T00:33:12.560Z,924.81
2019-04-05T00:33:25.627Z,924.76
2019-04-05T00:33:38.735Z,924.76
2019-04-05T00:33:51.757Z,924.77
2019-04-05T00:34:04.688Z,924.76
2019-04-05T00:34:17.643Z,924.74
2019-04-05T00:34:30.204Z,924.73
2019-04-05T00:34:43.172Z,924.72
2019-04-05T00:34:56.208Z,924.73
2019-04-05T00:35:09.150Z,924.73
2019-04-05T00:35:22.268Z,924.76
2019-04-05T00:35:35.274Z,924.75
2019-04-05T00:35:48.274Z,924.75
2019-04-05T00:36:00.835Z,924.74
2019-04-05T00:36:13.790Z,924.75
2019-04-05T00:36:26.710Z,924.72
2019-04-05T00:36:39.762Z,924.73
2019-04-05T00:36:52.349Z,924.78
2019-04-05T00:37:05.431Z,924.73
2019-04-05T00:37:18.539Z,924.75
2019-04-05T00:37:31.567Z,924.77
2019-04-05T00:37:44.591Z,924.77
2019-04-05T00:37:57.671Z,924.77
2019-04-05T00:38:10.662Z,924.82
2019-04-05T00:38:23.606Z,924.77
2019-04-05T00:38:36.607Z,924.76
2019-04-05T00:38:49.597Z,924.77
2019-04-05T00:39:02.558Z,924.78
2019-04-05T00:39:15.547Z,924.78
2019-04-05T00:39:28.077Z,924.77
2019-04-05T00:39:41.102Z,924.81
2019-04-05T00:39:54.101Z,924.78
2019-04-05T00:40:07.133Z,924.78
2019-04-05T00:40:20.158Z,924.8
2019-04-05T00:40:33.232Z,924.83
2019-04-05T00:40:45.810Z,924.82
2019-04-05T00:40:58.814Z,924.85
2019-04-05T00:41:11.770Z,924.84
2019-04-05T00:41:24.776Z,924.89
2019-04-05T00:41:40.133Z,924.87
2019-04-05T00:41:53.147Z,924.85
2019-04-05T00:42:06.895Z,924.84
2019-04-05T00:42:19.860Z,924.9
2019-04-05T00:42:32.916Z,924.89
2019-04-05T00:42:45.952Z,924.88
2019-04-05T00:42:58.986Z,924.9
2019-04-05T00:43:12.080Z,924.88
2019-04-05T00:43:25.120Z,924.88
2019-04-05T00:43:38.111Z,924.92
2019-04-05T00:43:51.186Z,924.93
2019-04-05T00:44:04.203Z,924.94
2019-04-05T00:44:17.221Z,924.92
2019-04-05T00:44:30.303Z,924.92
2019-04-05T00:44:43.382Z,924.92
2019-04-05T00:44:55.973Z,924.9
2019-04-05T00:45:08.989Z,924.92
2019-04-05T00:45:34.506Z,924.91
2019-04-05T00:45:47.510Z,924.89
2019-04-05T00:46:00.547Z,924.91
2019-04-05T00:46:13.691Z,924.91
2019-04-05T00:46:26.734Z,924.89
2019-04-05T00:46:39.754Z,924.92
2019-04-05T00:46:54.929Z,924.94
2019-04-05T00:47:07.933Z,924.91
2019-04-05T00:47:20.950Z,924.91
2019-04-05T00:47:33.493Z,924.94
2019-04-05T00:47:46.137Z,924.94
2019-04-05T00:47:59.108Z,924.91
2019-04-05T00:48:12.141Z,924.91
2019-04-05T00:48:25.140Z,924.92
2019-04-05T00:48:38.201Z,924.92
2019-04-05T00:48:51.149Z,924.92
2019-04-05T00:49:04.151Z,924.96
2019-04-05T00:49:17.080Z,924.97
2019-04-05T00:49:30.133Z,924.94
2019-04-05T00:49:43.156Z,924.95
2019-04-05T00:49:56.105Z,924.95
2019-04-05T00:50:09.173Z,924.95
2019-04-05T00:50:22.224Z,924.98
2019-04-05T00:50:35.272Z,924.97
2019-04-05T00:50:48.338Z,924.96
2019-04-05T00:51:00.882Z,924.92
2019-04-05T00:51:13.913Z,924.94
2019-04-05T00:51:26.876Z,924.98
2019-04-05T00:51:39.903Z,924.97
2019-04-05T00:51:52.993Z,924.93
2019-04-05T00:52:06.010Z,924.96
2019-04-05T00:52:19.003Z,924.96
2019-04-05T00:52:31.573Z,924.98
2019-04-05T00:52:44.631Z,924.96
2019-04-05T00:52:57.625Z,924.97
2019-04-05T00:53:10.644Z,924.95
2019-04-05T00:53:23.667Z,924.95
2019-04-05T00:53:36.835Z,924.96
2019-04-05T00:53:49.863Z,924.94
2019-04-05T00:54:02.853Z,924.96
2019-04-05T00:54:15.887Z,924.96
2019-04-05T00:54:28.860Z,924.97
2019-04-05T00:54:41.910Z,924.96
2019-04-05T00:54:54.963Z,924.95
2019-04-05T00:55:07.972Z,924.97
2019-04-05T00:55:21.031Z,924.99
2019-04-05T00:55:34.013Z,924.95
2019-04-05T00:55:47.035Z,924.95
2019-04-05T00:55:59.990Z,924.96
2019-04-05T00:56:12.972Z,924.96
2019-04-05T00:56:26.016Z,924.97
2019-04-05T00:56:39.059Z,924.99
2019-04-05T00:56:52.137Z,924.98
2019-04-05T00:57:05.146Z,924.96
2019-04-05T00:57:18.364Z,924.97
2019-04-05T00:57:31.334Z,924.98
2019-04-05T00:57:44.316Z,925
2019-04-05T00:57:59.234Z,924.97
2019-04-05T00:58:12.213Z,924.99
2019-04-05T00:58:25.215Z,925.02
2019-04-05T00:58:38.288Z,925.01
2019-04-05T00:58:51.330Z,924.98
2019-04-05T00:59:04.384Z,925.02
2019-04-05T00:59:17.337Z,925.01
2019-04-05T00:59:30.477Z,925.01
2019-04-05T00:59:43.558Z,925.03
2019-04-05T00:59:56.577Z,925.02
2019-04-05T01:00:09.480Z,925.03
2019-04-05T01:00:22.592Z,925.01
2019-04-05T01:00:35.609Z,925.03
2019-04-05T01:00:48.647Z,925.03
2019-04-05T01:01:01.749Z,925.01
2019-04-05T01:01:14.767Z,925.03
2019-04-05T01:01:27.819Z,925.04
2019-04-05T01:01:40.822Z,925.04
2019-04-05T01:01:53.864Z,925.02
2019-04-05T01:02:06.919Z,925.04
2019-04-05T01:02:19.983Z,925.03
2019-04-05T01:02:33.037Z,925.01
2019-04-05T01:02:46.152Z,925
2019-04-05T01:02:59.111Z,924.99
2019-04-05T01:03:14.403Z,924.99
2019-04-05T01:03:27.447Z,925.01
2019-04-05T01:03:40.472Z,925.03
2019-04-05T01:03:53.528Z,924.99
2019-04-05T01:04:06.540Z,925
2019-04-05T01:04:19.547Z,925
2019-04-05T01:04:32.579Z,925.01
2019-04-05T01:04:45.630Z,924.97
2019-04-05T01:04:58.684Z,924.96
2019-04-05T01:05:11.735Z,924.96
2019-04-05T01:05:24.732Z,924.99
2019-04-05T01:05:37.647Z,924.97
2019-04-05T01:05:50.706Z,924.97
2019-04-05T01:06:03.785Z,924.96
2019-04-05T01:06:16.789Z,925
2019-04-05T01:06:29.795Z,924.97
2019-04-05T01:06:42.843Z,924.98
2019-04-05T01:06:55.857Z,924.97
2019-04-05T01:07:08.916Z,925.01
2019-04-05T01:07:21.917Z,924.94
2019-04-05T01:07:34.929Z,924.97
2019-04-05T01:07:47.956Z,924.95
2019-04-05T01:08:01.029Z,924.95
2019-04-05T01:08:14.045Z,924.98
2019-04-05T01:08:26.978Z,924.98
2019-04-05T01:08:39.938Z,924.99
2019-04-05T01:08:52.904Z,924.97
2019-04-05T01:09:05.960Z,924.97
2019-04-05T01:09:18.972Z,924.97
2019-04-05T01:09:31.975Z,924.94
2019-04-05T01:09:44.468Z,925.01
2019-04-05T01:09:57.426Z,924.96
2019-04-05T01:10:10.371Z,924.99
2019-04-05T01:10:23.442Z,925
2019-04-05T01:10:36.465Z,924.98
2019-04-05T01:10:49.005Z,924.99
2019-04-05T01:11:01.974Z,924.96
2019-04-05T01:11:14.977Z,925.02
2019-04-05T01:11:28.076Z,925.03
2019-04-05T01:11:41.118Z,924.99
2019-04-05T01:11:54.177Z,925.01
2019-04-05T01:12:07.151Z,924.99
2019-04-05T01:12:21.040Z,924.94
2019-04-05T01:12:36.155Z,924.97
2019-04-05T01:12:49.175Z,924.96
2019-04-05T01:13:02.222Z,924.99
2019-04-05T01:13:15.192Z,924.96
2019-04-05T01:13:28.211Z,924.96
2019-04-05T01:13:41.179Z,925
2019-04-05T01:13:54.173Z,925.01
2019-04-05T01:14:07.138Z,924.99
2019-04-05T01:14:20.118Z,925.01
2019-04-05T01:14:33.170Z,924.95
2019-04-05T01:14:46.201Z,924.98
2019-04-05T01:14:59.215Z,924.99
2019-04-05T01:15:12.271Z,925
2019-04-05T01:15:25.181Z,924.96
2019-04-05T01:15:50.231Z,924.99
2019-04-05T01:16:03.280Z,924.97
2019-04-05T01:16:16.263Z,924.95
2019-04-05T01:16:29.327Z,924.97
2019-04-05T01:16:42.419Z,924.96
2019-04-05T01:16:55.459Z,924.98
2019-04-05T01:17:08.051Z,924.96
2019-04-05T01:17:31.912Z,924.99
2019-04-05T01:17:45.001Z,924.99
2019-04-05T01:17:58.019Z,925
2019-04-05T01:18:10.960Z,924.97
2019-04-05T01:18:23.944Z,925.01
2019-04-05T01:18:36.449Z,924.98
2019-04-05T01:18:49.456Z,925.01
2019-04-05T01:19:05.173Z,925.01
2019-04-05T01:19:18.142Z,925
2019-04-05T01:19:31.137Z,925
2019-04-05T01:19:44.174Z,925.01
2019-04-05T01:19:57.195Z,925.01
2019-04-05T01:20:10.282Z,925
2019-04-05T01:20:22.826Z,925
2019-04-05T01:20:35.815Z,925
2019-04-05T01:20:48.787Z,925.01
2019-04-05T01:21:01.755Z,925.06
2019-04-05T01:21:14.918Z,925.03
2019-04-05T01:21:28.006Z,925.04
2019-04-05T01:21:41.122Z,924.98
2019-04-05T01:21:54.168Z,925.01
2019-04-05T01:22:07.235Z,925.01
2019-04-05T01:22:20.228Z,925.03
2019-04-05T01:22:33.292Z,925.02
2019-04-05T01:22:46.318Z,925
2019-04-05T01:22:59.355Z,925.03
2019-04-05T01:23:12.446Z,924.99
2019-04-05T01:23:25.444Z,925.01
2019-04-05T01:23:38.413Z,925.04
2019-04-05T01:23:51.409Z,925.04
2019-04-05T01:24:04.378Z,925.07
2019-04-05T01:24:17.431Z,925.04
2019-04-05T01:24:30.402Z,925.04
2019-04-05T01:24:43.401Z,925.1
2019-04-05T01:24:56.376Z,925.02
2019-04-05T01:25:09.387Z,925.03
2019-04-05T01:25:22.436Z,925.01
2019-04-05T01:25:35.431Z,925.01
2019-04-05T01:25:48.350Z,925.05
2019-04-05T01:26:01.236Z,925.06
2019-04-05T01:26:14.302Z,925.03
2019-04-05T01:26:27.319Z,925.04
2019-04-05T01:26:40.301Z,924.97
2019-04-05T01:26:53.333Z,924.98
2019-04-05T01:27:06.315Z,925
2019-04-05T01:27:19.295Z,925
2019-04-05T01:27:32.621Z,925.01
2019-04-05T01:27:45.182Z,925.02
2019-04-05T01:27:58.222Z,925.03
2019-04-05T01:28:11.269Z,924.99
2019-04-05T01:28:24.280Z,925
2019-04-05T01:28:37.320Z,925.04
2019-04-05T01:28:50.358Z,924.99
2019-04-05T01:29:03.020Z,924.99
2019-04-05T01:29:16.060Z,925
2019-04-05T01:29:29.254Z,924.99
2019-04-05T01:29:42.166Z,925.02
2019-04-05T01:29:55.241Z,925.01
2019-04-05T01:30:08.301Z,924.98
2019-04-05T01:30:21.348Z,924.95
2019-04-05T01:30:34.293Z,924.96
2019-04-05T01:30:47.323Z,924.96
2019-04-05T01:31:00.318Z,924.99
2019-04-05T01:31:13.259Z,924.94
2019-04-05T01:31:26.315Z,924.96
2019-04-05T01:31:39.341Z,924.96
2019-04-05T01:31:52.335Z,924.95
2019-04-05T01:32:05.342Z,924.96
2019-04-05T01:32:18.450Z,924.96
2019-04-05T01:32:31.473Z,924.96
2019-04-05T01:32:44.617Z,924.95
2019-04-05T01:32:57.561Z,924.93
2019-04-05T01:33:10.644Z,924.94
2019-04-05T01:33:23.641Z,924.95
2019-04-05T01:33:36.717Z,924.94
2019-04-05T01:33:49.662Z,924.94
2019-04-05T01:34:05.369Z,924.91
2019-04-05T01:34:18.614Z,924.92
2019-04-05T01:34:31.587Z,924.95
2019-04-05T01:34:44.536Z,924.93
2019-04-05T01:34:57.570Z,924.96
2019-04-05T01:35:10.487Z,924.91
2019-04-05T01:35:23.524Z,924.92
2019-04-05T01:35:36.566Z,924.9
2019-04-05T01:35:49.016Z,924.91
2019-04-05T01:36:02.063Z,924.94
2019-04-05T01:36:15.015Z,924.95
2019-04-05T01:36:27.960Z,924.93
2019-04-05T01:36:41.004Z,924.94
2019-04-05T01:36:54.064Z,924.92
2019-04-05T01:37:07.102Z,924.95
2019-04-05T01:37:20.126Z,924.9
2019-04-05T01:37:33.066Z,924.96
2019-04-05T01:37:46.042Z,924.92
2019-04-05T01:37:58.689Z,924.93
2019-04-05T01:38:11.634Z,924.96
2019-04-05T01:38:24.637Z,924.94
2019-04-05T01:38:37.588Z,924.92
2019-04-05T01:38:50.675Z,924.91
2019-04-05T01:39:03.701Z,924.94
2019-04-05T01:39:16.701Z,924.92
2019-04-05T01:39:29.264Z,924.95
2019-04-05T01:39:42.240Z,924.93
2019-04-05T01:39:55.232Z,924.93
2019-04-05T01:40:08.266Z,924.92
2019-04-05T01:40:21.211Z,924.91
2019-04-05T01:40:34.263Z,924.91
2019-04-05T01:40:47.310Z,924.93
2019-04-05T01:41:00.351Z,924.92
2019-04-05T01:41:13.376Z,924.91
2019-04-05T01:41:26.483Z,924.91
2019-04-05T01:41:39.490Z,924.86
2019-04-05T01:41:52.491Z,924.87
2019-04-05T01:42:05.509Z,924.89
2019-04-05T01:42:18.046Z,924.86
2019-04-05T01:42:31.084Z,924.87
2019-04-05T01:42:44.834Z,924.89
2019-04-05T01:42:57.887Z,924.88
2019-04-05T01:43:10.882Z,924.88
2019-04-05T01:43:23.965Z,924.84
2019-04-05T01:43:37.035Z,924.82
2019-04-05T01:43:50.052Z,924.88
2019-04-05T01:44:03.021Z,924.85
2019-04-05T01:44:15.962Z,924.82
2019-04-05T01:44:28.937Z,924.85
2019-04-05T01:44:41.470Z,924.86
2019-04-05T01:44:56.057Z,924.82
2019-04-05T01:45:09.123Z,924.87
2019-04-05T01:45:22.172Z,924.83
2019-04-05T01:45:35.104Z,924.85
2019-04-05T01:46:00.521Z,924.86
2019-04-05T01:46:13.582Z,924.86
2019-04-05T01:46:26.609Z,924.86
2019-04-05T01:46:39.617Z,924.87
2019-04-05T01:46:52.639Z,924.87
2019-04-05T01:47:05.659Z,924.8
2019-04-05T01:47:18.740Z,924.83
2019-04-05T01:47:31.802Z,924.84
2019-04-05T01:47:44.941Z,924.84
2019-04-05T01:47:57.507Z,924.85
2019-04-05T01:48:10.429Z,924.82
2019-04-05T01:48:23.440Z,924.83
2019-04-05T01:48:36.506Z,924.81
2019-04-05T01:48:49.540Z,924.83
2019-04-05T01:49:02.609Z,924.85
2019-04-05T01:49:15.652Z,924.83
2019-04-05T01:49:28.657Z,924.82
2019-04-05T01:49:41.690Z,924.84
2019-04-05T01:49:54.708Z,924.82
2019-04-05T01:50:07.678Z,924.82
2019-04-05T01:50:20.687Z,924.78
2019-04-05T01:50:33.687Z,924.79
2019-04-05T01:50:46.757Z,924.79
2019-04-05T01:50:59.796Z,924.81
2019-04-05T01:51:12.793Z,924.79
2019-04-05T01:51:25.773Z,924.79
2019-04-05T01:51:38.771Z,924.8
2019-04-05T01:51:51.810Z,924.79
2019-04-05T01:52:04.825Z,924.77
2019-04-05T01:52:17.391Z,924.77
2019-04-05T01:52:30.335Z,924.76
2019-04-05T01:52:43.324Z,924.78
2019-04-05T01:52:56.345Z,924.78
2019-04-05T01:53:09.326Z,924.77
2019-04-05T01:53:21.859Z,924.76
2019-04-05T01:53:34.884Z,924.74
2019-04-05T01:53:47.871Z,924.74
2019-04-05T01:54:00.933Z,924.74
2019-04-05T01:54:13.981Z,924.73
2019-04-05T01:54:29.115Z,924.73
2019-04-05T01:54:42.317Z,924.73
2019-04-05T01:54:55.396Z,924.74
2019-04-05T01:55:08.438Z,924.77
2019-04-05T01:55:21.460Z,924.76
2019-04-05T01:55:34.530Z,924.75
2019-04-05T01:55:47.571Z,924.76
2019-04-05T01:56:00.582Z,924.73
2019-04-05T01:56:13.613Z,924.74
2019-04-05T01:56:26.675Z,924.76
2019-04-05T01:56:39.625Z,924.78
2019-04-05T01:56:52.737Z,924.73
2019-04-05T01:57:05.662Z,924.77
2019-04-05T01:57:18.715Z,924.77
2019-04-05T01:57:31.716Z,924.76
2019-04-05T01:57:44.677Z,924.75
2019-04-05T01:57:58.726Z,924.75
2019-04-05T01:58:11.819Z,924.75
2019-04-05T01:58:24.913Z,924.74
2019-04-05T01:58:37.891Z,924.75
2019-04-05T01:58:50.988Z,924.75
2019-04-05T01:59:04.073Z,924.74
2019-04-05T01:59:17.078Z,924.76
2019-04-05T01:59:30.155Z,924.76
2019-04-05T01:59:43.187Z,924.76
2019-04-05T01:59:56.236Z,924.72
2019-04-05T02:00:09.344Z,924.72
2019-04-05T02:00:22.482Z,924.73
2019-04-05T02:00:35.510Z,924.76
2019-04-05T02:00:48.458Z,924.72
2019-04-05T02:01:01.465Z,924.73
2019-04-05T02:01:14.499Z,924.71
2019-04-05T02:01:27.497Z,924.72
2019-04-05T02:01:40.573Z,924.7
2019-04-05T02:01:53.632Z,924.74
2019-04-05T02:02:06.650Z,924.71
2019-04-05T02:02:19.665Z,924.74
2019-04-05T02:02:32.706Z,924.74
2019-04-05T02:02:45.728Z,924.73
2019-04-05T02:02:58.689Z,924.74
2019-04-05T02:03:11.756Z,924.75
2019-04-05T02:03:24.827Z,924.72
2019-04-05T02:03:37.885Z,924.7
2019-04-05T02:03:50.928Z,924.74
2019-04-05T02:04:03.911Z,924.74
2019-04-05T02:04:17.024Z,924.7
2019-04-05T02:04:30.089Z,924.72
2019-04-05T02:04:43.117Z,924.74
2019-04-05T02:04:57.054Z,924.76
2019-04-05T02:05:10.120Z,924.76
2019-04-05T02:05:23.139Z,924.77
2019-04-05T02:05:35.707Z,924.76
2019-04-05T02:05:48.763Z,924.75
2019-04-05T02:06:01.791Z,924.74
2019-04-05T02:06:14.462Z,924.73
2019-04-05T02:06:27.517Z,924.75
2019-04-05T02:06:40.597Z,924.74
2019-04-05T02:06:53.613Z,924.75
2019-04-05T02:07:06.161Z,924.75
2019-04-05T02:07:19.177Z,924.76
2019-04-05T02:07:32.175Z,924.76
2019-04-05T02:07:45.252Z,924.75
2019-04-05T02:07:58.242Z,924.74
2019-04-05T02:08:10.783Z,924.74
2019-04-05T02:08:23.750Z,924.75
2019-04-05T02:08:36.825Z,924.77
2019-04-05T02:08:49.846Z,924.76
2019-04-05T02:09:02.848Z,924.75
2019-04-05T02:09:15.924Z,924.75
2019-04-05T02:09:28.904Z,924.71
2019-04-05T02:09:41.483Z,924.75
2019-04-05T02:09:54.483Z,924.71
2019-04-05T02:10:07.502Z,924.74
2019-04-05T02:10:20.109Z,924.71
2019-04-05T02:10:33.186Z,924.71
2019-04-05T02:10:46.241Z,924.71
2019-04-05T02:10:59.258Z,924.67
2019-04-05T02:11:12.289Z,924.72
2019-04-05T02:11:25.398Z,924.71
2019-04-05T02:11:37.947Z,924.71
2019-04-05T02:11:50.963Z,924.73
2019-04-05T02:12:04.071Z,924.71
2019-04-05T02:12:17.113Z,924.72
2019-04-05T02:12:30.131Z,924.71
2019-04-05T02:12:43.163Z,924.72
2019-04-05T02:12:56.990Z,924.72
2019-04-05T02:13:10.027Z,924.72
2019-04-05T02:13:23.050Z,924.73
2019-04-05T02:13:36.049Z,924.75
2019-04-05T02:13:49.036Z,924.74
2019-04-05T02:14:01.548Z,924.7
2019-04-05T02:14:14.546Z,924.71
2019-04-05T02:14:27.536Z,924.74
2019-04-05T02:14:40.552Z,924.72
2019-04-05T02:14:53.585Z,924.71
2019-04-05T02:15:06.688Z,924.75
2019-04-05T02:15:19.704Z,924.73
2019-04-05T02:15:32.711Z,924.76
2019-04-05T02:15:45.819Z,924.72
2019-04-05T02:16:10.407Z,924.78
2019-04-05T02:16:23.412Z,924.74
2019-04-05T02:16:36.487Z,924.72
2019-04-05T02:16:49.564Z,924.74
2019-04-05T02:17:02.615Z,924.75
2019-04-05T02:17:15.612Z,924.76
2019-04-05T02:17:28.644Z,924.76
2019-04-05T02:17:43.148Z,924.73
2019-04-05T02:17:56.096Z,924.75
2019-04-05T02:18:09.082Z,924.77
2019-04-05T02:18:22.162Z,924.74
2019-04-05T02:18:35.229Z,924.74
2019-04-05T02:18:48.178Z,924.74
2019-04-05T02:19:01.229Z,924.76
2019-04-05T02:19:14.242Z,924.78
2019-04-05T02:19:27.231Z,924.79
2019-04-05T02:19:40.239Z,924.76
2019-04-05T02:19:53.332Z,924.8
2019-04-05T02:20:06.434Z,924.77
2019-04-05T02:20:19.374Z,924.76
2019-04-05T02:20:32.406Z,924.78
2019-04-05T02:20:45.426Z,924.77
2019-04-05T02:20:58.482Z,924.78
2019-04-05T02:21:11.398Z,924.74
2019-04-05T02:21:24.534Z,924.73
2019-04-05T02:21:37.569Z,924.75
2019-04-05T02:21:50.575Z,924.74
2019-04-05T02:22:03.609Z,924.73
2019-04-05T02:22:16.668Z,924.77
2019-04-05T02:22:29.717Z,924.74
2019-04-05T02:22:42.697Z,924.76
2019-04-05T02:22:55.693Z,924.74
2019-04-05T02:23:08.748Z,924.75
2019-04-05T02:23:21.795Z,924.73
2019-04-05T02:23:34.808Z,924.74
2019-04-05T02:23:47.881Z,924.74
2019-04-05T02:24:00.876Z,924.75
2019-04-05T02:24:13.889Z,924.73
2019-04-05T02:24:26.933Z,924.73
2019-04-05T02:24:39.979Z,924.75
2019-04-05T02:24:52.889Z,924.71
2019-04-05T02:25:05.935Z,924.69
2019-04-05T02:25:18.502Z,924.7
2019-04-05T02:25:31.549Z,924.7
2019-04-05T02:25:44.509Z,924.7
2019-04-05T02:25:57.556Z,924.7
2019-04-05T02:26:10.572Z,924.71
2019-04-05T02:26:23.628Z,924.68
2019-04-05T02:26:36.543Z,924.69
2019-04-05T02:26:49.109Z,924.72
2019-04-05T02:27:01.643Z,924.71
2019-04-05T02:27:14.707Z,924.73
2019-04-05T02:27:27.786Z,924.68
2019-04-05T02:27:40.850Z,924.7
2019-04-05T02:27:53.840Z,924.67
2019-04-05T02:28:07.763Z,924.71
2019-04-05T02:28:20.876Z,924.74
2019-04-05T02:28:35.621Z,924.72
2019-04-05T02:28:48.692Z,924.72
2019-04-05T02:29:01.612Z,924.68
2019-04-05T02:29:14.062Z,924.72
2019-04-05T02:29:27.093Z,924.75
2019-04-05T02:29:40.082Z,924.73
2019-04-05T02:29:53.053Z,924.73
2019-04-05T02:30:06.130Z,924.67
2019-04-05T02:30:19.163Z,924.73
2019-04-05T02:30:32.226Z,924.71
2019-04-05T02:30:45.250Z,924.72
2019-04-05T02:30:57.856Z,924.68
2019-04-05T02:31:10.942Z,924.68
2019-04-05T02:31:23.971Z,924.7
2019-04-05T02:31:36.992Z,924.69
2019-04-05T02:31:50.148Z,924.67
2019-04-05T02:32:03.166Z,924.71
2019-04-05T02:32:15.760Z,924.7
2019-04-05T02:32:28.818Z,924.73
2019-04-05T02:32:41.882Z,924.67
2019-04-05T02:32:55.017Z,924.69
2019-04-05T02:33:08.033Z,924.69
2019-04-05T02:33:21.093Z,924.72
2019-04-05T02:33:34.129Z,924.71
2019-04-05T02:33:47.266Z,924.69
2019-04-05T02:34:00.294Z,924.7
2019-04-05T02:34:13.321Z,924.67
2019-04-05T02:34:26.446Z,924.69
2019-04-05T02:34:39.587Z,924.68
2019-04-05T02:34:52.655Z,924.68
2019-04-05T02:35:05.653Z,924.71
2019-04-05T02:35:18.634Z,924.7
2019-04-05T02:35:31.666Z,924.68
2019-04-05T02:35:45.872Z,924.68
2019-04-05T02:35:58.860Z,924.66
2019-04-05T02:36:11.908Z,924.68
2019-04-05T02:36:24.904Z,924.68
2019-04-05T02:36:37.965Z,924.66
2019-04-05T02:36:51.086Z,924.65
2019-04-05T02:37:04.138Z,924.67
2019-04-05T02:37:17.075Z,924.64
2019-04-05T02:37:30.115Z,924.62
2019-04-05T02:37:43.104Z,924.65
2019-04-05T02:37:56.188Z,924.64
2019-04-05T02:38:08.770Z,924.6
2019-04-05T02:38:21.872Z,924.6
2019-04-05T02:38:34.912Z,924.62
2019-04-05T02:38:47.955Z,924.63
2019-04-05T02:39:01.007Z,924.63
2019-04-05T02:39:14.005Z,924.62
2019-04-05T02:39:27.051Z,924.59
2019-04-05T02:39:40.129Z,924.59
2019-04-05T02:39:53.202Z,924.61
2019-04-05T02:40:06.227Z,924.61
2019-04-05T02:40:19.262Z,924.61
2019-04-05T02:40:32.303Z,924.62
2019-04-05T02:40:45.308Z,924.61
2019-04-05T02:41:00.071Z,924.59
2019-04-05T02:41:13.060Z,924.6
2019-04-05T02:41:26.058Z,924.57
2019-04-05T02:41:39.161Z,924.63
2019-04-05T02:41:52.170Z,924.57
2019-04-05T02:42:05.189Z,924.64
2019-04-05T02:42:18.298Z,924.62
2019-04-05T02:42:31.306Z,924.62
2019-04-05T02:42:44.336Z,924.6
2019-04-05T02:42:57.407Z,924.58
2019-04-05T02:43:11.436Z,924.57
2019-04-05T02:43:24.466Z,924.63
2019-04-05T02:43:37.464Z,924.59
2019-04-05T02:43:50.602Z,924.63
2019-04-05T02:44:03.596Z,924.61
2019-04-05T02:44:16.620Z,924.58
2019-04-05T02:44:29.700Z,924.64